createdAt,value
2018-12-02T00:01:51.342Z,8.50
2018-12-02T00:04:19.985Z,8.60
2018-12-02T00:06:48.621Z,8.60
2018-12-02T00:09:21.311Z,8.60
2018-12-02T00:14:33.546Z,8.60
2018-12-02T00:17:03.379Z,8.60
2018-12-02T00:19:32.449Z,8.60
2018-12-02T00:22:01.089Z,8.60
2018-12-02T00:24:30.377Z,8.60
2018-12-02T00:26:59.405Z,8.60
2018-12-02T00:29:28.460Z,8.60
2018-12-02T00:31:57.003Z,8.60
2018-12-02T00:34:25.638Z,8.60
2018-12-02T00:36:54.314Z,8.60
2018-12-02T00:39:22.692Z,8.60
2018-12-02T00:41:51.119Z,8.60
2018-12-02T00:44:20.600Z,8.60
2018-12-02T00:46:50.133Z,8.60
2018-12-02T00:49:18.829Z,8.60
2018-12-02T00:51:47.555Z,8.60
2018-12-02T00:54:16.580Z,8.60
2018-12-02T00:56:45.142Z,8.60
2018-12-02T00:59:13.856Z,8.60
2018-12-02T01:01:43.829Z,8.60
2018-12-02T01:04:12.623Z,8.60
2018-12-02T01:06:41.177Z,8.60
2018-12-02T01:09:10.011Z,8.50
2018-12-02T01:11:38.492Z,8.60
2018-12-02T01:14:06.849Z,8.60
2018-12-02T01:16:35.347Z,8.60
2018-12-02T01:19:04.104Z,8.60
2018-12-02T01:21:32.541Z,8.60
2018-12-02T01:24:01.012Z,8.60
2018-12-02T01:26:30.106Z,8.60
2018-12-02T01:28:58.725Z,8.60
2018-12-02T01:31:27.290Z,8.60
2018-12-02T01:33:55.883Z,8.70
2018-12-02T01:36:24.344Z,8.70
2018-12-02T01:38:52.744Z,8.70
2018-12-02T01:41:21.314Z,8.70
2018-12-02T01:43:49.799Z,8.80
2018-12-02T01:46:19.312Z,8.80
2018-12-02T01:48:47.782Z,8.80
2018-12-02T01:51:17.724Z,8.80
2018-12-02T01:53:46.219Z,8.80
2018-12-02T01:56:14.654Z,8.80
2018-12-02T01:58:43.096Z,8.80
2018-12-02T02:01:11.609Z,8.90
2018-12-02T02:03:40.583Z,8.90
2018-12-02T02:06:09.304Z,8.90
2018-12-02T02:08:37.862Z,8.90
2018-12-02T02:11:06.470Z,8.90
2018-12-02T02:13:35.130Z,8.90
2018-12-02T02:16:03.808Z,8.90
2018-12-02T02:18:32.365Z,8.90
2018-12-02T02:21:00.827Z,8.90
2018-12-02T02:23:29.167Z,8.90
2018-12-02T02:26:00.066Z,8.90
2018-12-02T02:28:28.593Z,8.90
2018-12-02T02:31:05.349Z,8.90
2018-12-02T02:33:33.797Z,8.90
2018-12-02T02:36:03.182Z,8.90
2018-12-02T02:38:31.648Z,8.90
2018-12-02T02:41:00.181Z,8.90
2018-12-02T02:43:28.693Z,8.80
2018-12-02T02:45:58.583Z,8.80
2018-12-02T02:48:29.538Z,8.90
2018-12-02T02:50:58.017Z,8.80
2018-12-02T02:53:32.780Z,8.80
2018-12-02T02:56:02.721Z,8.90
2018-12-02T02:58:31.371Z,8.90
2018-12-02T03:00:59.823Z,8.90
2018-12-02T03:03:30.492Z,8.90
2018-12-02T03:05:59.146Z,8.90
2018-12-02T03:08:28.201Z,8.90
2018-12-02T03:10:56.778Z,8.90
2018-12-02T03:13:25.569Z,8.90
2018-12-02T03:15:56.703Z,8.90
2018-12-02T03:18:26.260Z,8.90
2018-12-02T03:20:54.921Z,8.90
2018-12-02T03:23:23.283Z,8.90
2018-12-02T03:25:51.912Z,8.90
2018-12-02T03:28:23.895Z,8.90
2018-12-02T03:30:52.422Z,8.90
2018-12-02T03:33:20.816Z,9.00
2018-12-02T03:35:50.583Z,9.00
2018-12-02T03:38:19.842Z,9.00
2018-12-02T03:40:49.422Z,9.00
2018-12-02T03:43:17.993Z,9.00
2018-12-02T03:45:46.998Z,9.00
2018-12-02T03:48:15.492Z,9.00
2018-12-02T03:50:44.043Z,9.00
2018-12-02T03:53:12.420Z,9.00
2018-12-02T03:55:40.890Z,9.00
2018-12-02T03:58:10.289Z,9.00
2018-12-02T04:00:38.738Z,9.00
2018-12-02T04:03:07.796Z,9.10
2018-12-02T04:05:36.501Z,9.10
2018-12-02T04:08:05.651Z,9.00
2018-12-02T04:10:34.260Z,9.00
2018-12-02T04:13:02.739Z,9.00
2018-12-02T04:15:31.452Z,9.00
2018-12-02T04:17:59.885Z,9.00
2018-12-02T04:20:28.275Z,9.10
2018-12-02T04:22:56.863Z,9.10
2018-12-02T04:25:26.589Z,9.20
2018-12-02T04:27:55.187Z,9.20
2018-12-02T04:30:24.274Z,9.20
2018-12-02T04:32:53.948Z,9.20
2018-12-02T04:35:25.114Z,9.20
2018-12-02T04:37:53.493Z,9.20
2018-12-02T04:40:21.857Z,9.20
2018-12-02T04:42:50.415Z,9.20
2018-12-02T04:45:19.845Z,9.20
2018-12-02T04:47:48.601Z,9.30
2018-12-02T04:50:19.668Z,9.30
2018-12-02T04:52:48.150Z,9.30
2018-12-02T04:55:16.678Z,9.30
2018-12-02T04:57:45.999Z,9.30
2018-12-02T05:00:18.617Z,9.30
2018-12-02T05:02:48.844Z,9.30
2018-12-02T05:05:22.832Z,9.40
2018-12-02T05:07:51.597Z,9.40
2018-12-02T05:10:21.003Z,9.40
2018-12-02T05:12:50.168Z,9.40
2018-12-02T05:15:20.845Z,9.40
2018-12-02T05:17:49.422Z,9.40
2018-12-02T05:20:19.883Z,9.40
2018-12-02T05:22:48.259Z,9.40
2018-12-02T05:25:18.527Z,9.40
2018-12-02T05:27:47.544Z,9.40
2018-12-02T05:30:22.704Z,9.30
2018-12-02T05:32:53.105Z,9.30
2018-12-02T05:35:21.580Z,9.40
2018-12-02T05:37:50.022Z,9.30
2018-12-02T05:40:23.308Z,9.30
2018-12-02T05:42:53.607Z,9.30
2018-12-02T05:45:22.457Z,9.30
2018-12-02T05:47:50.968Z,9.30
2018-12-02T05:50:25.147Z,9.30
2018-12-02T05:52:58.963Z,9.40
2018-12-02T05:55:34.894Z,9.40
2018-12-02T05:58:03.389Z,9.40
2018-12-02T06:00:31.893Z,9.40
2018-12-02T06:03:00.275Z,9.40
2018-12-02T06:05:28.658Z,9.30
2018-12-02T06:07:57.077Z,9.20
2018-12-02T06:10:25.365Z,9.20
2018-12-02T06:12:53.724Z,9.10
2018-12-02T06:15:22.849Z,9.00
2018-12-02T06:17:51.321Z,8.90
2018-12-02T06:20:23.418Z,8.80
2018-12-02T06:22:53.918Z,8.80
2018-12-02T06:25:22.292Z,8.80
2018-12-02T06:27:50.640Z,8.70
2018-12-02T06:30:26.069Z,8.70
2018-12-02T06:32:56.845Z,8.60
2018-12-02T06:35:25.079Z,8.60
2018-12-02T06:37:54.903Z,8.60
2018-12-02T06:40:26.475Z,8.50
2018-12-02T06:42:54.806Z,8.50
2018-12-02T06:45:23.463Z,8.40
2018-12-02T06:47:51.739Z,8.40
2018-12-02T06:50:22.678Z,8.40
2018-12-02T06:52:51.663Z,8.40
2018-12-02T06:56:30.239Z,8.40
2018-12-02T07:01:36.692Z,8.40
2018-12-02T07:04:22.071Z,8.40
2018-12-02T07:06:50.424Z,8.40
2018-12-02T07:09:19.775Z,8.40
2018-12-02T07:11:48.228Z,8.40
2018-12-02T07:14:16.588Z,8.40
2018-12-02T07:16:45.351Z,8.40
2018-12-02T07:19:20.734Z,8.30
2018-12-02T07:21:54.699Z,8.40
2018-12-02T07:24:24.001Z,8.40
2018-12-02T07:26:55.336Z,8.40
2018-12-02T07:29:23.671Z,8.40
2018-12-02T07:31:53.006Z,8.40
2018-12-02T07:34:21.370Z,8.50
2018-12-02T07:36:49.816Z,8.50
2018-12-02T07:40:00.897Z,8.50
2018-12-02T07:42:29.298Z,8.50
2018-12-02T07:44:57.614Z,8.50
2018-12-02T07:47:26.152Z,8.60
2018-12-02T07:49:54.582Z,8.60
2018-12-02T07:52:22.950Z,8.60
2018-12-02T07:54:51.392Z,8.60
2018-12-02T07:57:20.746Z,8.60
2018-12-02T07:59:50.869Z,8.60
2018-12-02T08:02:19.300Z,8.70
2018-12-02T08:04:48.092Z,8.70
2018-12-02T08:07:16.319Z,8.80
2018-12-02T08:09:44.722Z,8.80
2018-12-02T08:12:13.232Z,8.90
2018-12-02T08:14:41.612Z,8.90
2018-12-02T08:17:10.170Z,9.00
2018-12-02T08:19:38.657Z,9.00
2018-12-02T08:22:06.903Z,9.00
2018-12-02T08:24:36.358Z,9.10
2018-12-02T08:27:07.405Z,9.10
2018-12-02T08:29:35.807Z,9.20
2018-12-02T08:32:04.661Z,9.20
2018-12-02T08:34:33.131Z,9.20
2018-12-02T08:37:01.473Z,9.30
2018-12-02T08:39:30.079Z,9.30
2018-12-02T08:41:59.134Z,9.40
2018-12-02T08:44:27.532Z,9.40
2018-12-02T08:46:55.898Z,9.50
2018-12-02T08:49:24.385Z,9.50
2018-12-02T08:51:53.316Z,9.50
2018-12-02T08:54:21.802Z,9.50
2018-12-02T08:56:50.173Z,9.50
2018-12-02T08:59:18.980Z,9.50
2018-12-02T09:01:47.609Z,9.50
2018-12-02T09:04:16.034Z,9.60
2018-12-02T09:06:44.929Z,9.60
2018-12-02T09:09:14.367Z,9.60
2018-12-02T09:11:42.953Z,9.60
2018-12-02T09:14:11.493Z,9.70
2018-12-02T09:16:39.863Z,9.70
2018-12-02T09:19:08.165Z,9.70
2018-12-02T09:21:36.757Z,9.70
2018-12-02T09:24:05.376Z,9.70
2018-12-02T09:26:33.779Z,9.70
2018-12-02T09:29:03.049Z,9.80
2018-12-02T09:31:32.392Z,9.80
2018-12-02T09:34:00.982Z,9.80
2018-12-02T09:36:29.435Z,9.90
2018-12-02T09:38:58.154Z,9.90
2018-12-02T09:41:26.730Z,9.90
2018-12-02T09:43:55.276Z,9.90
2018-12-02T09:46:23.786Z,9.90
2018-12-02T09:48:52.229Z,10.00
2018-12-02T09:51:20.626Z,10.00
2018-12-02T09:53:49.428Z,10.00
2018-12-02T09:56:17.821Z,10.00
2018-12-02T09:58:46.197Z,10.10
2018-12-02T10:01:14.609Z,10.10
2018-12-02T10:03:42.940Z,10.10
2018-12-02T10:06:12.277Z,10.20
2018-12-02T10:08:41.011Z,10.20
2018-12-02T10:11:09.526Z,10.30
2018-12-02T10:13:38.178Z,10.30
2018-12-02T10:16:07.100Z,10.30
2018-12-02T10:18:35.556Z,10.30
2018-12-02T10:21:04.969Z,10.30
2018-12-02T10:23:33.370Z,10.40
2018-12-02T10:26:02.987Z,10.30
2018-12-02T10:28:31.639Z,10.30
2018-12-02T10:31:00.213Z,10.40
2018-12-02T10:33:28.704Z,10.40
2018-12-02T10:35:58.372Z,10.40
2018-12-02T10:38:27.533Z,10.40
2018-12-02T10:40:56.692Z,10.50
2018-12-02T10:43:26.129Z,10.50
2018-12-02T10:45:55.173Z,10.50
2018-12-02T10:48:23.812Z,10.50
2018-12-02T10:50:52.597Z,10.50
2018-12-02T10:53:23.405Z,10.50
2018-12-02T10:55:57.658Z,10.50
2018-12-02T10:58:30.095Z,10.60
2018-12-02T11:01:06.028Z,10.60
2018-12-02T11:03:34.671Z,10.70
2018-12-02T11:06:03.716Z,10.70
2018-12-02T11:08:32.323Z,10.80
2018-12-02T11:11:01.366Z,10.90
2018-12-02T11:13:30.200Z,10.90
2018-12-02T11:15:58.637Z,11.00
2018-12-02T11:18:27.244Z,11.10
2018-12-02T11:20:55.862Z,11.20
2018-12-02T11:23:25.153Z,11.20
2018-12-02T11:25:54.451Z,11.40
2018-12-02T11:28:23.892Z,11.50
2018-12-02T11:30:52.269Z,11.60
2018-12-02T11:33:20.817Z,11.70
2018-12-02T11:35:50.375Z,11.80
2018-12-02T11:38:19.027Z,11.80
2018-12-02T11:40:47.566Z,11.90
2018-12-02T11:43:15.909Z,12.00
2018-12-02T11:45:44.394Z,12.00
2018-12-02T11:48:13.596Z,12.10
2018-12-02T11:50:42.130Z,12.10
2018-12-02T11:53:12.244Z,12.10
2018-12-02T11:55:41.470Z,12.30
2018-12-02T11:58:10.105Z,12.30
2018-12-02T12:00:40.507Z,12.40
2018-12-02T12:03:09.130Z,12.50
2018-12-02T12:05:39.054Z,12.60
2018-12-02T12:08:10.451Z,12.60
2018-12-02T12:10:39.557Z,12.70
2018-12-02T12:13:09.336Z,12.70
2018-12-02T12:15:40.727Z,12.70
2018-12-02T12:18:12.131Z,12.70
2018-12-02T12:21:36.650Z,12.80
2018-12-02T12:24:06.038Z,12.80
2018-12-02T12:26:34.604Z,12.80
2018-12-02T12:29:03.295Z,12.80
2018-12-02T12:31:32.315Z,12.90
2018-12-02T12:34:01.887Z,13.00
2018-12-02T12:36:30.550Z,13.10
2018-12-02T12:38:59.304Z,13.10
2018-12-02T12:41:27.754Z,13.00
2018-12-02T12:43:56.305Z,12.90
2018-12-02T12:46:35.204Z,12.90
2018-12-02T12:49:06.098Z,12.90
2018-12-02T12:51:42.692Z,12.90
2018-12-02T12:54:11.408Z,12.90
2018-12-02T12:56:44.072Z,12.90
2018-12-02T12:59:12.702Z,12.90
2018-12-02T13:04:25.048Z,12.90
2018-12-02T13:06:55.719Z,13.00
2018-12-02T13:23:08.601Z,13.00
2018-12-02T13:25:57.184Z,13.00
2018-12-02T13:28:30.248Z,13.00
2018-12-02T13:31:01.640Z,13.00
2018-12-02T13:33:30.557Z,12.90
2018-12-02T13:35:59.110Z,12.80
2018-12-02T13:38:27.955Z,12.90
2018-12-02T13:40:57.763Z,12.80
2018-12-02T13:43:27.095Z,12.80
2018-12-02T13:45:56.865Z,12.80
2018-12-02T13:48:29.988Z,12.80
2018-12-02T13:51:06.129Z,12.80
2018-12-02T13:53:42.247Z,12.80
2018-12-02T13:56:11.991Z,12.80
2018-12-02T13:58:40.628Z,12.90
2018-12-02T14:01:10.591Z,12.90
2018-12-02T14:03:40.292Z,12.90
2018-12-02T14:06:09.117Z,13.00
2018-12-02T14:08:45.984Z,13.00
2018-12-02T14:11:44.181Z,13.00
2018-12-02T14:27:35.523Z,13.10
2018-12-02T14:30:22.104Z,12.90
2018-12-02T14:32:54.137Z,12.90
2018-12-02T14:35:29.765Z,12.90
2018-12-02T14:38:20.862Z,12.90
2018-12-02T14:41:28.226Z,12.90
2018-12-02T14:44:16.475Z,12.80
2018-12-02T14:47:34.691Z,12.80
2018-12-02T14:56:39.001Z,12.70
2018-12-02T14:59:21.657Z,12.70
2018-12-02T15:02:01.240Z,12.70
2018-12-02T15:04:35.396Z,12.70
2018-12-02T15:07:08.059Z,12.70
2018-12-02T15:09:43.998Z,12.70
2018-12-02T15:12:15.274Z,12.70
2018-12-02T15:14:45.332Z,12.70
2018-12-02T15:17:16.320Z,12.60
2018-12-02T15:19:47.952Z,12.60
2018-12-02T15:22:16.768Z,12.50
2018-12-02T15:24:45.341Z,12.50
2018-12-02T15:27:16.175Z,12.40
2018-12-02T15:29:45.234Z,12.40
2018-12-02T15:32:14.390Z,12.30
2018-12-02T15:34:43.169Z,12.30
2018-12-02T15:40:07.744Z,12.20
2018-12-02T15:42:38.484Z,12.30
2018-12-02T15:45:15.043Z,12.30
2018-12-02T15:47:44.258Z,12.30
2018-12-02T15:50:18.164Z,12.40
2018-12-02T15:52:48.472Z,12.30
2018-12-02T15:55:26.440Z,12.40
2018-12-02T15:57:55.792Z,12.40
2018-12-02T16:00:32.323Z,12.30
2018-12-02T16:03:02.012Z,12.40
2018-12-02T16:05:31.213Z,12.30
2018-12-02T16:07:59.843Z,12.30
2018-12-02T16:10:29.369Z,12.30
2018-12-02T16:12:58.497Z,12.30
2018-12-02T16:15:33.809Z,12.30
2018-12-02T16:18:03.191Z,12.30
2018-12-02T16:20:54.243Z,12.30
2018-12-02T16:23:29.382Z,12.40
2018-12-02T16:26:06.260Z,12.40
2018-12-02T16:28:38.759Z,12.30
2018-12-02T16:31:08.652Z,12.30
2018-12-02T16:33:40.187Z,12.30
2018-12-02T16:39:15.941Z,12.30
2018-12-02T16:42:19.706Z,12.30
2018-12-02T16:45:02.720Z,12.20
2018-12-02T16:47:42.440Z,12.20
2018-12-02T16:50:29.438Z,12.20
2018-12-02T17:06:36.734Z,12.20
2018-12-02T17:09:11.724Z,12.10
2018-12-02T17:11:43.024Z,12.10
2018-12-02T17:14:17.458Z,12.10
2018-12-02T17:16:47.834Z,12.00
2018-12-02T17:19:17.499Z,12.10
2018-12-02T17:21:47.027Z,12.00
2018-12-02T17:24:17.941Z,12.10
2018-12-02T17:26:48.287Z,12.10
2018-12-02T17:29:24.625Z,12.10
2018-12-02T17:32:11.221Z,12.10
2018-12-02T17:34:43.380Z,12.10
2018-12-02T17:37:12.436Z,12.10
2018-12-02T17:39:52.947Z,12.10
2018-12-02T17:42:23.638Z,12.10
2018-12-02T17:44:52.685Z,12.20
2018-12-02T17:47:22.714Z,12.20
2018-12-02T17:49:51.574Z,12.20
2018-12-02T17:52:26.939Z,12.20
2018-12-02T17:54:56.313Z,12.30
2018-12-02T17:57:26.201Z,12.20
2018-12-02T17:59:56.661Z,12.20
2018-12-02T18:02:26.222Z,12.30
2018-12-02T18:05:01.796Z,12.20
2018-12-02T18:07:32.254Z,12.20
2018-12-02T18:10:01.623Z,12.20
2018-12-02T18:12:31.456Z,12.20
2018-12-02T18:15:03.119Z,12.20
2018-12-02T18:17:36.386Z,12.20
2018-12-02T18:20:11.168Z,12.20
2018-12-02T18:22:41.885Z,12.20
2018-12-02T18:25:14.489Z,12.20
2018-12-02T18:27:46.596Z,12.20
2018-12-02T18:30:23.210Z,12.20
2018-12-02T18:32:55.670Z,12.20
2018-12-02T18:36:39.122Z,12.20
2018-12-02T18:39:13.726Z,12.10
2018-12-02T18:41:47.450Z,12.10
2018-12-02T18:44:17.552Z,12.10
2018-12-02T18:46:46.792Z,12.10
2018-12-02T18:49:16.676Z,12.00
2018-12-02T18:51:46.693Z,12.00
2018-12-02T18:54:16.089Z,11.90
2018-12-02T18:56:44.931Z,11.90
2018-12-02T18:59:13.684Z,11.80
2018-12-02T19:01:42.695Z,11.80
2018-12-02T19:04:13.098Z,11.70
2018-12-02T19:06:42.292Z,11.70
2018-12-02T19:09:12.909Z,11.70
2018-12-02T19:11:41.423Z,11.70
2018-12-02T19:14:10.601Z,11.70
2018-12-02T19:16:39.103Z,11.70
2018-12-02T19:19:08.223Z,11.80
2018-12-02T19:21:36.929Z,11.80
2018-12-02T19:24:07.878Z,11.80
2018-12-02T19:26:36.295Z,11.80
2018-12-02T19:29:05.967Z,11.80
2018-12-02T19:31:34.361Z,11.80
2018-12-02T19:34:03.455Z,11.90
2018-12-02T19:36:37.783Z,11.90
2018-12-02T19:39:11.571Z,11.90
2018-12-02T19:41:40.298Z,11.90
2018-12-02T19:46:54.629Z,11.90
2018-12-02T19:49:23.251Z,11.90
2018-12-02T19:51:53.022Z,11.90
2018-12-02T19:54:22.689Z,11.90
2018-12-02T19:56:51.537Z,11.90
2018-12-02T19:59:20.086Z,12.00
2018-12-02T20:01:48.793Z,12.00
2018-12-02T20:04:17.636Z,12.00
2018-12-02T20:06:46.495Z,12.00
2018-12-02T20:09:15.760Z,12.00
2018-12-02T20:11:44.457Z,11.90
2018-12-02T20:14:13.676Z,11.90
2018-12-02T20:16:43.032Z,11.90
2018-12-02T20:19:18.124Z,11.90
2018-12-02T20:21:47.871Z,11.90
2018-12-02T20:24:21.914Z,11.90
2018-12-02T20:26:50.642Z,11.90
2018-12-02T20:29:19.050Z,11.90
2018-12-02T20:34:26.573Z,11.80
2018-12-02T20:36:55.056Z,11.80
2018-12-02T20:39:23.518Z,11.80
2018-12-02T20:41:52.009Z,11.80
2018-12-02T20:44:20.759Z,11.80
2018-12-02T20:46:49.031Z,11.80
2018-12-02T20:49:17.463Z,11.80
2018-12-02T20:51:45.965Z,11.80
2018-12-02T20:54:14.548Z,11.80
2018-12-02T20:56:43.158Z,11.80
2018-12-02T20:59:11.559Z,11.80
2018-12-02T21:01:40.022Z,11.80
2018-12-02T21:04:11.738Z,11.80
2018-12-02T21:06:40.420Z,11.70
2018-12-02T21:09:09.928Z,11.70
2018-12-02T21:11:40.620Z,11.70
2018-12-02T21:14:07.292Z,11.70
2018-12-02T21:16:37.603Z,11.70
2018-12-02T21:19:06.266Z,11.70
2018-12-02T21:21:37.320Z,11.70
2018-12-02T21:24:03.268Z,11.70
2018-12-02T21:26:31.607Z,11.70
2018-12-02T21:28:59.882Z,11.70
2018-12-02T21:31:28.299Z,11.70
2018-12-02T21:33:56.659Z,11.70
2018-12-02T21:36:25.108Z,11.70
2018-12-02T21:38:54.024Z,11.70
2018-12-02T21:41:23.204Z,11.70
2018-12-02T21:43:52.777Z,11.70
2018-12-02T21:46:21.115Z,11.70
2018-12-02T21:48:50.926Z,11.70
2018-12-02T21:51:19.361Z,11.60
2018-12-02T21:53:47.857Z,11.70
2018-12-02T21:56:16.212Z,11.70
2018-12-02T21:58:44.505Z,11.70
2018-12-02T22:01:13.169Z,11.70
2018-12-02T22:03:42.083Z,11.80
2018-12-02T22:06:12.285Z,11.90
2018-12-02T22:08:42.107Z,11.90
2018-12-02T22:11:12.157Z,11.90
2018-12-02T22:13:43.487Z,12.00
2018-12-02T22:16:10.496Z,12.00
2018-12-02T22:18:39.415Z,12.00
2018-12-02T22:21:07.817Z,12.00
2018-12-02T22:23:36.244Z,12.00
2018-12-02T22:26:04.906Z,12.00
2018-12-02T22:28:33.523Z,12.00
2018-12-02T22:31:02.779Z,12.00
2018-12-02T22:33:31.196Z,12.00
2018-12-02T22:36:00.055Z,12.10
2018-12-02T22:38:28.413Z,12.00
2018-12-02T22:40:56.825Z,12.00
2018-12-02T22:43:25.350Z,12.10
2018-12-02T22:45:54.002Z,12.10
2018-12-02T22:48:22.277Z,12.10
2018-12-02T22:50:50.681Z,12.10
2018-12-02T22:53:19.065Z,12.20
2018-12-02T22:55:48.046Z,12.20
2018-12-02T22:58:16.407Z,12.10
2018-12-02T23:00:52.219Z,12.10
2018-12-02T23:03:21.666Z,12.10
2018-12-02T23:05:50.056Z,12.10
2018-12-02T23:08:18.476Z,12.10
2018-12-02T23:10:47.070Z,12.10
2018-12-02T23:13:15.386Z,12.10
2018-12-02T23:15:43.813Z,12.10
2018-12-02T23:18:13.103Z,12.10
2018-12-02T23:20:41.481Z,12.10
2018-12-02T23:23:11.951Z,12.10
2018-12-02T23:25:40.396Z,12.10
2018-12-02T23:28:08.814Z,12.20
2018-12-02T23:30:37.148Z,12.20
2018-12-02T23:33:07.150Z,12.20
2018-12-02T23:35:36.502Z,12.20
2018-12-02T23:38:05.288Z,12.20
2018-12-02T23:40:33.602Z,12.30
2018-12-02T23:43:03.213Z,12.30
2018-12-02T23:45:31.559Z,12.30
2018-12-02T23:47:59.926Z,12.30
2018-12-02T23:50:28.382Z,12.40
2018-12-02T23:52:56.672Z,12.30
2018-12-02T23:55:25.697Z,12.40
2018-12-02T23:57:54.859Z,12.30
